Kankakee, IL

1:43 PM CST on December 07, 2019 (GMT -0600)
Greater Kankakee

Weather History for KIKK - October, 2019

Change the Weather History Date:

Monday, October 7, 2019

  Actual Average Record
Temperature  
Mean Temperature 58 °F -  
Max Temperature 71 °F 67 °F 93 °F (2007)
Min Temperature 44 °F 40 °F 29 °F (1991)
Degree Days  
Heating Degree Days 8    
Growing Degree Days 8 (Base 50)    
Moisture  
Dew Point 43 °F    
Average Humidity 65    
Maximum Humidity 97    
Minimum Humidity 26    
Precipitation  
Precipitation 0.00 in - - ()
Sea Level Pressure  
Sea Level Pressure 30.20 in    
Wind  
Wind Speed 5 mph (West)    
Max Wind Speed 15 mph    
Max Gust Speed 21 mph    
Visibility 10 miles    
Events      
Averages and records for this station are not official NWS values.
T = Trace of Precipitation, MM = Missing Value Source: NWS Daily Summary

Daily Weather History Graph

Daily Weather History Graph

Search for Another Location

Airport or City:

Astronomy

Oct. 07, 2019 Rise Set
Actual Time 6:54 AM CDT 6:23 PM CDT
Civil Twilight 6:26 AM CDT 6:51 PM CDT
Nautical Twilight 5:54 AM CDT 7:23 PM CDT
Astronomical Twilight 5:22 AM CDT 7:55 PM CDT
Moon 3:48 PM CDT 12:43 AM CDT
Length of Visible Light 12h 24m
Length of Day
11h 29m
Waxing Gibbous, 69% of the Moon is Illuminated
Oct 7
Waxing Gibbous
Oct 13
Full
Oct 21
Last Quarter
Oct 27
New
Nov 4
First Quarter

Hourly Weather History & Observations

Time (CDT) Temp. Windchill Dew Point Humidity Pressure Visibility Wind Dir Wind Speed Gust Speed Precip Events Conditions
12:15 AM 54.3 °F - 45.7 °F 73% 30.18 in 10.0 mi Calm Calm - N/A   Clear
12:35 AM 54.3 °F - 45.5 °F 72% 30.17 in 10.0 mi West 4.6 mph - N/A   Clear
12:55 AM 53.1 °F - 45.5 °F 75% 30.17 in 10.0 mi West 5.8 mph - N/A   Clear
1:15 AM 52.3 °F - 45.7 °F 78% 30.17 in 10.0 mi West 5.8 mph - N/A   Clear
1:35 AM 51.8 °F - 45.5 °F 79% 30.17 in 10.0 mi West 3.5 mph - N/A   Clear
1:55 AM 50.9 °F - 45.5 °F 82% 30.17 in 10.0 mi West 3.5 mph - N/A   Clear
2:15 AM 50.2 °F - 45.9 °F 85% 30.18 in 10.0 mi West 5.8 mph - N/A   Clear
2:35 AM 50.2 °F - 45.9 °F 85% 30.18 in 10.0 mi West 5.8 mph - N/A   Clear
2:55 AM 49.6 °F - 46.0 °F 87% 30.18 in 10.0 mi West 6.9 mph - N/A   Clear
3:15 AM 50.0 °F - 46.4 °F 87% 30.18 in 10.0 mi West 5.8 mph - N/A   Clear
3:35 AM 48.7 °F - 46.0 °F 90% 30.19 in 10.0 mi West 4.6 mph - N/A   Clear
3:55 AM 48.7 °F - 46.6 °F 92% 30.19 in 10.0 mi West 6.9 mph - N/A   Clear
4:15 AM 48.6 °F - 45.7 °F 90% 30.19 in 10.0 mi West 5.8 mph - N/A   Clear
4:35 AM 48.7 °F - 45.9 °F 90% 30.19 in 10.0 mi West 5.8 mph - N/A   Clear
4:55 AM 48.6 °F - 45.7 °F 90% 30.19 in 10.0 mi West 6.9 mph - N/A   Clear
5:15 AM 47.7 °F - 45.7 °F 93% 30.19 in 10.0 mi West 6.9 mph - N/A   Clear
5:35 AM 47.3 °F - 45.7 °F 94% 30.19 in 10.0 mi West 5.8 mph - N/A   Clear
5:55 AM 46.8 °F - 45.5 °F 95% 30.19 in 10.0 mi West 6.9 mph - N/A   Clear
6:15 AM 46.4 °F 42.9 °F 44.8 °F 94% 30.20 in 10.0 mi West 6.9 mph - N/A   Clear
6:55 AM 44.6 °F 42.2 °F 43.7 °F 97% 30.19 in 10.0 mi West 4.6 mph - N/A   Clear
7:15 AM 45.5 °F 44.2 °F 44.1 °F 95% 30.19 in 10.0 mi West 3.5 mph - N/A   Clear
7:35 AM 45.5 °F 44.2 °F 43.9 °F 94% 30.20 in 10.0 mi West 3.5 mph - N/A   Clear
7:55 AM 48.0 °F - 45.7 °F 92% 30.20 in 10.0 mi West 3.5 mph - N/A   Clear
8:15 AM 49.5 °F - 46.2 °F 89% 30.21 in 10.0 mi West 5.8 mph - N/A   Clear
8:35 AM 51.4 °F - 46.9 °F 85% 30.22 in 10.0 mi West 6.9 mph - N/A   Clear
8:55 AM 53.4 °F - 47.3 °F 80% 30.22 in 10.0 mi West 8.1 mph - N/A   Clear
9:15 AM 55.4 °F - 46.8 °F 73% 30.22 in 10.0 mi West 5.8 mph - N/A   Clear
9:35 AM 57.4 °F - 47.3 °F 69% 30.22 in 10.0 mi WSW 3.5 mph - N/A   Clear
9:55 AM 59.4 °F - 47.7 °F 65% 30.22 in 10.0 mi West 3.5 mph - N/A   Clear
10:15 AM 61.9 °F - 47.5 °F 59% 30.22 in 10.0 mi West 5.8 mph - N/A   Clear
10:35 AM 63.7 °F - 46.2 °F 53% 30.22 in 10.0 mi West 6.9 mph - N/A   Clear
10:55 AM 64.8 °F - 44.2 °F 47% 30.22 in 10.0 mi West 5.8 mph - N/A   Clear
11:15 AM 65.8 °F - 43.2 °F 44% 30.22 in 10.0 mi WNW 5.8 mph - N/A   Clear
11:35 AM 66.7 °F - 43.7 °F 43% 30.22 in 10.0 mi West 6.9 mph - N/A   Clear
11:55 AM 68.0 °F - 42.3 °F 39% 30.22 in 10.0 mi West 6.9 mph - N/A   Clear
12:35 PM 69.1 °F - 40.3 °F 35% 30.22 in 10.0 mi West 9.2 mph - N/A   Clear
12:55 PM 69.8 °F - 39.4 °F 33% 30.21 in 10.0 mi West 9.2 mph 16.1 mph N/A   Clear
1:15 PM 70.5 °F - 39.4 °F 32% 30.20 in 10.0 mi WNW 10.4 mph 18.4 mph N/A   Clear
1:35 PM 70.7 °F - 37.2 °F 29% 30.20 in 10.0 mi WNW 12.7 mph 18.4 mph N/A   Clear
1:55 PM 70.5 °F - 37.2 °F 30% 30.19 in 10.0 mi West 11.5 mph 17.3 mph N/A   Clear
2:15 PM 70.9 °F - 35.6 °F 27% 30.18 in 10.0 mi West 13.8 mph 19.6 mph N/A   Clear
2:35 PM 71.2 °F - 36.3 °F 28% 30.18 in 10.0 mi West 11.5 mph - N/A   Clear
2:55 PM 71.1 °F - 36.1 °F 28% 30.18 in 10.0 mi WNW 15.0 mph 20.7 mph N/A   Clear
3:15 PM 70.9 °F - 35.6 °F 27% 30.18 in 10.0 mi NW 9.2 mph 20.7 mph N/A   Clear
3:35 PM 70.9 °F - 34.7 °F 26% 30.17 in 10.0 mi WNW 13.8 mph 17.3 mph N/A   Clear
3:55 PM 70.7 °F - 36.3 °F 28% 30.17 in 10.0 mi WNW 9.2 mph 18.4 mph N/A   Clear
4:15 PM 70.3 °F - 35.6 °F 28% 30.17 in 10.0 mi WNW 10.4 mph - N/A   Clear
4:35 PM 69.8 °F - 35.1 °F 28% 30.17 in 10.0 mi WNW 11.5 mph - N/A   Clear
4:55 PM 69.3 °F - 36.7 °F 30% 30.18 in 10.0 mi WNW 10.4 mph - N/A   Clear
5:15 PM 68.7 °F - 36.3 °F 30% 30.17 in 10.0 mi NW 9.2 mph - N/A   Clear
5:35 PM 68.0 °F - 37.2 °F 32% 30.18 in 10.0 mi NW 4.6 mph - N/A   Clear
5:55 PM 66.6 °F - 38.1 °F 35% 30.18 in 10.0 mi NW 3.5 mph - N/A   Clear
6:15 PM 64.8 °F - 38.5 °F 38% 30.18 in 10.0 mi NW 3.5 mph - N/A   Clear
6:35 PM 63.0 °F - 39.4 °F 42% 30.18 in 10.0 mi Calm Calm - N/A   Clear
6:55 PM 63.0 °F - 39.0 °F 41% 30.19 in 10.0 mi Calm Calm - N/A   Clear
7:15 PM 57.7 °F - 42.3 °F 56% 30.19 in 10.0 mi WSW 3.5 mph - N/A   Clear
7:35 PM 54.7 °F - 43.2 °F 65% 30.20 in 10.0 mi Calm Calm - N/A   Clear
7:55 PM 55.8 °F - 42.6 °F 61% 30.20 in 10.0 mi Calm Calm - N/A   Clear
8:15 PM 54.1 °F - 44.1 °F 69% 30.20 in 10.0 mi Calm Calm - N/A   Clear
8:35 PM 52.9 °F - 43.5 °F 71% 30.21 in 10.0 mi Calm Calm - N/A   Clear
8:55 PM 49.5 °F - 44.4 °F 83% 30.21 in 10.0 mi Calm Calm - N/A   Clear
9:15 PM 50.9 °F - 43.5 °F 76% 30.22 in 10.0 mi Calm Calm - N/A   Clear
9:35 PM 49.8 °F - 44.4 °F 82% 30.22 in 10.0 mi Calm Calm - N/A   Clear
9:55 PM 50.4 °F - 44.8 °F 81% 30.22 in 10.0 mi Calm Calm - N/A   Clear
10:15 PM 49.5 °F - 43.3 °F 79% 30.22 in 10.0 mi Calm Calm - N/A   Clear
10:35 PM 48.9 °F - 43.3 °F 81% 30.23 in 10.0 mi Calm Calm - N/A   Clear
10:55 PM 48.6 °F - 44.4 °F 86% 30.23 in 10.0 mi Calm Calm - N/A   Clear
11:15 PM 48.6 °F - 45.0 °F 87% 30.23 in 10.0 mi Calm Calm - N/A   Clear
11:35 PM 48.2 °F - 43.7 °F 84% 30.23 in 10.0 mi Calm Calm - N/A   Clear
11:55 PM 48.2 °F - 43.9 °F 85% 30.23 in 10.0 mi Calm Calm - N/A   Clear